Time;durP1;ratioP1;P1;durP2;ratioP2;P2;SDS_P1;SDS_P2;PMS_P1;PMS_P2;Temp;Humidity;BMP_temperature;BMP_pressure;BME280_temperature;BME280_humidity;BME280_pressure;Samples;Min_cycle;Max_cycle;Signal;HPM_P1;HPM_P2
2023/01/07 00:01:18;;;;;;;3.17;1.87;;;11.20;75.50;;;;;;5023932;28;20435;-76
2023/01/07 00:03:45;;;;;;;3.43;2.13;;;11.20;75.70;;;;;;5025060;28;20907;-74
2023/01/07 00:06:15;;;;;;;2.73;1.70;;;11.20;75.70;;;;;;5029015;28;20997;-76
2023/01/07 00:08:42;;;;;;;1.90;1.57;;;11.20;75.90;;;;;;5030068;28;20424;-77
2023/01/07 00:11:11;;;;;;;3.27;1.93;;;11.20;75.90;;;;;;5027631;28;20454;-74
2023/01/07 00:13:37;;;;;;;3.70;1.90;;;11.10;75.90;;;;;;5030017;28;20423;-75
2023/01/07 00:16:12;;;;;;;4.83;1.80;;;11.10;76.20;;;;;;5031338;28;20559;-76
2023/01/07 00:18:38;;;;;;;7.70;2.50;;;11.10;77.00;;;;;;5017371;28;20418;-75
2023/01/07 00:21:07;;;;;;;2.40;1.93;;;11.10;76.80;;;;;;5022437;28;20519;-75
2023/01/07 00:23:35;;;;;;;3.73;2.40;;;11.00;77.00;;;;;;5024822;28;20434;-75
2023/01/07 00:26:05;;;;;;;6.87;2.20;;;11.00;77.00;;;;;;5023682;28;20452;-76
2023/01/07 00:28:36;;;;;;;3.83;1.93;;;11.00;77.00;;;;;;5021063;28;20744;-74
2023/01/07 00:31:14;;;;;;;5.07;2.17;;;10.90;77.10;;;;;;5027043;28;20423;-75
2023/01/07 00:33:50;;;;;;;2.90;2.00;;;10.90;77.40;;;;;;5028230;28;20419;-75
2023/01/07 00:36:17;;;;;;;2.80;2.13;;;10.80;77.40;;;;;;5027281;28;20470;-75
2023/01/07 00:38:42;;;;;;;3.10;2.27;;;10.80;77.60;;;;;;5024471;28;20503;-75
2023/01/07 00:41:09;;;;;;;3.17;2.33;;;10.80;77.60;;;;;;5027744;28;20573;-76
2023/01/07 00:43:34;;;;;;;6.03;2.90;;;10.80;77.70;;;;;;5029155;28;20610;-77
2023/01/07 00:46:00;;;;;;;4.07;2.60;;;10.80;77.70;;;;;;5028610;28;20550;-75
2023/01/07 00:48:26;;;;;;;4.23;2.40;;;10.80;78.00;;;;;;5026180;28;20199;-76
2023/01/07 00:50:53;;;;;;;4.30;2.60;;;10.80;77.80;;;;;;5030494;28;20185;-76
2023/01/07 00:53:19;;;;;;;2.60;1.87;;;10.80;77.80;;;;;;5027551;28;20196;-75
2023/01/07 00:55:46;;;;;;;3.87;2.23;;;10.80;77.70;;;;;;5028925;28;20483;-77
2023/01/07 00:58:18;;;;;;;2.43;2.10;;;10.80;77.80;;;;;;5029690;28;20514;-75
2023/01/07 01:00:44;;;;;;;3.43;2.13;;;10.80;78.00;;;;;;5029322;28;20834;-74
2023/01/07 01:03:10;;;;;;;4.13;1.97;;;10.90;78.00;;;;;;5025265;28;20792;-76
2023/01/07 01:05:36;;;;;;;5.80;3.40;;;10.90;78.00;;;;;;5028585;28;20270;-74
2023/01/07 01:08:02;;;;;;;3.30;2.17;;;10.90;77.80;;;;;;5032098;28;20459;-75
2023/01/07 01:10:27;;;;;;;4.00;2.40;;;11.00;77.80;;;;;;5029819;28;20220;-75
2023/01/07 01:12:53;;;;;;;3.73;2.17;;;11.00;77.70;;;;;;5032795;28;20181;-74
2023/01/07 01:15:19;;;;;;;2.30;1.80;;;10.90;78.00;;;;;;5030779;28;20221;-77
2023/01/07 01:17:44;;;;;;;3.70;2.50;;;10.90;78.00;;;;;;5029715;28;20222;-76
2023/01/07 01:20:13;;;;;;;3.93;2.50;;;10.90;77.80;;;;;;5023160;28;20954;-75
2023/01/07 01:22:39;;;;;;;2.70;1.93;;;10.80;78.30;;;;;;5028185;28;20557;-77
2023/01/07 01:25:05;;;;;;;3.87;2.13;;;10.80;78.40;;;;;;5030518;28;20480;-74
2023/01/07 01:27:31;;;;;;;3.33;2.20;;;10.80;78.40;;;;;;5030026;28;20494;-76
2023/01/07 01:29:57;;;;;;;4.37;2.60;;;10.80;78.40;;;;;;5036563;28;20423;-73
2023/01/07 01:32:23;;;;;;;3.10;2.20;;;10.80;78.60;;;;;;5037805;28;20247;-76
2023/01/07 01:34:49;;;;;;;4.40;2.30;;;10.80;78.90;;;;;;5039644;28;20423;-76
2023/01/07 01:37:15;;;;;;;4.63;2.27;;;10.80;78.90;;;;;;5027612;28;20516;-75
2023/01/07 01:39:41;;;;;;;2.07;1.80;;;10.80;78.70;;;;;;5033082;28;20705;-76
2023/01/07 01:42:12;;;;;;;2.67;2.00;;;10.80;78.70;;;;;;5030252;28;20541;-76
2023/01/07 01:44:40;;;;;;;3.03;2.00;;;10.70;77.80;;;;;;5034578;28;20177;-76
2023/01/07 01:47:21;;;;;;;2.57;2.00;;;10.60;78.00;;;;;;5025743;28;20500;-75
2023/01/07 01:50:18;;;;;;;2.40;1.67;;;10.60;78.10;;;;;;5032408;28;20432;-74
2023/01/07 01:52:49;;;;;;;3.70;1.90;;;10.60;77.80;;;;;;5019847;28;21295;-76
2023/01/07 01:55:19;;;;;;;4.83;1.97;;;10.60;77.80;;;;;;5030511;28;20456;-76
2023/01/07 01:57:47;;;;;;;2.40;1.93;;;10.60;77.60;;;;;;5038761;28;20968;-76
2023/01/07 02:00:15;;;;;;;2.40;1.50;;;10.60;77.70;;;;;;5023429;28;20436;-76
2023/01/07 02:02:47;;;;;;;2.50;1.73;;;10.50;77.70;;;;;;5031310;28;20409;-74
2023/01/07 02:05:14;;;;;;;3.27;1.57;;;10.60;77.80;;;;;;5027700;28;20473;-76
2023/01/07 02:07:39;;;;;;;2.57;1.67;;;10.60;77.40;;;;;;5031097;28;20467;-76
2023/01/07 02:10:24;;;;;;;3.47;1.50;;;10.60;76.80;;;;;;5030115;28;20887;-73
2023/01/07 02:13:23;;;;;;;2.73;1.40;;;10.60;76.20;;;;;;5030736;28;20178;-75
2023/01/07 02:16:17;;;;;;;1.63;1.20;;;10.60;75.80;;;;;;5023646;28;20463;-75
2023/01/07 02:19:11;;;;;;;1.67;1.47;;;10.60;75.50;;;;;;5025675;28;20857;-74
2023/01/07 02:22:00;;;;;;;2.33;1.33;;;10.60;75.40;;;;;;5026791;28;20424;-75
2023/01/07 02:24:40;;;;;;;2.47;1.20;;;10.50;75.50;;;;;;5031511;28;20427;-74
2023/01/07 02:27:31;;;;;;;2.20;1.27;;;10.50;75.70;;;;;;5024123;28;20975;-74
2023/01/07 02:30:24;;;;;;;1.80;1.20;;;10.50;75.80;;;;;;5020624;28;20438;-75
2023/01/07 02:33:09;;;;;;;2.20;1.30;;;10.50;75.80;;;;;;5026066;28;20416;-74
2023/01/07 02:36:06;;;;;;;1.80;1.40;;;10.50;75.80;;;;;;5023697;28;20487;-76
2023/01/07 02:39:07;;;;;;;1.43;1.03;;;10.60;75.80;;;;;;5030031;28;20506;-74
2023/01/07 02:41:58;;;;;;;1.43;1.30;;;10.70;75.90;;;;;;5026337;28;20423;-75
2023/01/07 02:44:33;;;;;;;2.60;1.40;;;10.70;75.80;;;;;;5032022;28;20435;-74
2023/01/07 02:47:17;;;;;;;1.90;1.13;;;10.70;75.70;;;;;;5027365;28;20533;-74
2023/01/07 02:49:46;;;;;;;1.87;1.47;;;10.60;74.80;;;;;;5026845;28;20451;-77
2023/01/07 02:52:16;;;;;;;1.53;1.20;;;10.60;74.60;;;;;;5032519;28;20473;-76
2023/01/07 02:54:42;;;;;;;2.13;1.23;;;10.60;74.60;;;;;;5031070;28;20416;-75
2023/01/07 02:57:31;;;;;;;2.30;1.00;;;10.60;74.50;;;;;;5027095;28;20474;-76
2023/01/07 03:00:08;;;;;;;1.67;1.20;;;10.60;74.60;;;;;;5028648;28;20419;-75
2023/01/07 03:02:49;;;;;;;1.80;1.43;;;10.70;74.90;;;;;;5030369;28;20915;-76
2023/01/07 03:05:33;;;;;;;1.67;1.30;;;10.70;75.40;;;;;;5026416;28;20963;-73
2023/01/07 03:08:14;;;;;;;2.20;1.37;;;10.70;75.70;;;;;;5025093;28;20913;-75
2023/01/07 03:10:58;;;;;;;1.50;1.00;;;10.70;75.70;;;;;;5026994;28;20942;-75
2023/01/07 03:13:40;;;;;;;2.40;1.23;;;10.70;74.80;;;;;;5031694;28;20486;-73
2023/01/07 03:16:31;;;;;;;1.30;1.23;;;10.70;74.20;;;;;;5026134;28;20451;-73
2023/01/07 03:19:05;;;;;;;3.13;1.30;;;10.70;74.60;;;;;;5030153;28;20503;-75
2023/01/07 03:21:33;;;;;;;2.10;1.60;;;10.70;74.80;;;;;;5030324;28;20412;-75
2023/01/07 03:24:00;;;;;;;2.30;1.30;;;10.60;74.50;;;;;;5031613;28;20424;-75
2023/01/07 03:26:31;;;;;;;2.30;1.60;;;10.60;74.50;;;;;;5032400;28;20485;-75
2023/01/07 03:29:00;;;;;;;1.50;1.30;;;10.60;74.30;;;;;;5031953;28;20416;-75
2023/01/07 03:31:26;;;;;;;2.60;1.50;;;10.60;74.50;;;;;;5028488;28;20512;-76
2023/01/07 03:34:11;;;;;;;2.27;1.27;;;10.60;74.00;;;;;;5025600;28;20452;-76
2023/01/07 03:36:41;;;;;;;2.70;1.70;;;10.60;74.20;;;;;;5024553;28;20581;-75
2023/01/07 03:39:09;;;;;;;2.80;1.53;;;10.60;74.20;;;;;;5026343;28;20423;-74
2023/01/07 03:44:21;;;;;;;1.20;1.20;;;10.60;74.50;;;;;;5032982;28;20423;-75
2023/01/07 03:46:46;;;;;;;1.70;1.20;;;10.70;74.60;;;;;;5022225;28;20495;-76
2023/01/07 03:49:12;;;;;;;2.87;1.77;;;10.80;74.00;;;;;;5026394;28;20185;-74
2023/01/07 03:51:37;;;;;;;2.40;1.60;;;10.80;73.70;;;;;;5028990;28;20263;-75
2023/01/07 03:54:03;;;;;;;1.30;1.30;;;10.80;73.30;;;;;;5031012;28;20250;-75
2023/01/07 03:56:29;;;;;;;2.03;1.10;;;10.70;73.30;;;;;;5026083;28;20220;-75
2023/01/07 03:58:54;;;;;;;1.97;1.30;;;10.70;73.50;;;;;;5030501;28;20466;-74
2023/01/07 04:01:20;;;;;;;1.83;1.10;;;10.70;73.50;;;;;;5032267;28;20195;-75
2023/01/07 04:03:45;;;;;;;2.80;1.70;;;10.70;73.60;;;;;;5032151;28;20185;-74
2023/01/07 04:06:11;;;;;;;1.50;1.27;;;10.70;73.60;;;;;;5024379;28;20253;-73
2023/01/07 04:08:37;;;;;;;1.83;1.47;;;10.70;73.60;;;;;;5027358;28;20552;-75
2023/01/07 04:11:02;;;;;;;1.97;1.60;;;10.70;73.70;;;;;;5024503;28;20182;-76
2023/01/07 04:13:28;;;;;;;2.00;1.50;;;10.60;73.60;;;;;;5030422;28;20181;-75
2023/01/07 04:15:53;;;;;;;2.00;1.53;;;10.70;73.70;;;;;;5024705;28;20255;-74
2023/01/07 04:18:19;;;;;;;2.47;2.00;;;10.60;73.70;;;;;;5030775;28;20184;-76
2023/01/07 04:20:46;;;;;;;2.60;1.60;;;10.60;73.70;;;;;;5034450;28;20280;-74
2023/01/07 04:23:13;;;;;;;2.53;1.63;;;10.50;73.70;;;;;;5033581;28;20230;-74
2023/01/07 04:25:40;;;;;;;5.87;3.10;;;10.50;73.90;;;;;;5034528;28;20455;-74
2023/01/07 04:28:06;;;;;;;5.97;2.47;;;10.50;74.30;;;;;;5036484;28;20827;-72
2023/01/07 04:30:32;;;;;;;4.00;2.20;;;10.50;74.90;;;;;;5039090;28;20927;-76
2023/01/07 04:32:58;;;;;;;3.10;2.10;;;10.60;75.20;;;;;;5035349;28;20423;-75
2023/01/07 04:35:23;;;;;;;2.73;2.30;;;10.60;75.40;;;;;;5033655;28;20471;-73
2023/01/07 04:37:49;;;;;;;3.50;2.20;;;10.60;74.90;;;;;;5034647;28;20510;-76
2023/01/07 04:40:15;;;;;;;2.90;2.13;;;10.50;74.50;;;;;;5031120;28;20231;-75
2023/01/07 04:42:41;;;;;;;3.07;2.20;;;10.50;74.50;;;;;;5028730;28;20191;-74
2023/01/07 04:45:07;;;;;;;3.73;2.20;;;10.50;74.80;;;;;;5032135;28;20469;-73
2023/01/07 04:47:32;;;;;;;2.10;1.90;;;10.50;74.50;;;;;;5029806;28;20201;-74
2023/01/07 04:49:58;;;;;;;3.70;2.27;;;10.60;74.50;;;;;;5029030;28;20627;-75
2023/01/07 04:52:24;;;;;;;2.47;1.97;;;10.50;74.30;;;;;;5031375;28;20212;-73
2023/01/07 04:54:49;;;;;;;3.00;2.20;;;10.50;74.60;;;;;;5034424;28;20200;-74
2023/01/07 04:57:15;;;;;;;2.10;1.90;;;10.60;74.20;;;;;;5035608;28;20209;-73
2023/01/07 04:59:40;;;;;;;5.87;2.20;;;10.60;74.00;;;;;;5024718;28;20189;-73
2023/01/07 05:02:06;;;;;;;2.10;2.00;;;10.50;74.00;;;;;;5031187;28;20268;-73
2023/01/07 05:04:31;;;;;;;2.73;1.83;;;10.40;74.30;;;;;;5031403;28;20189;-72
2023/01/07 05:06:57;;;;;;;2.33;1.93;;;10.40;74.60;;;;;;5031146;28;20711;-73
2023/01/07 05:09:22;;;;;;;3.07;2.00;;;10.40;74.80;;;;;;5035968;28;20185;-73
2023/01/07 05:11:48;;;;;;;2.17;1.80;;;10.50;75.20;;;;;;5032126;28;20185;-74
2023/01/07 05:14:13;;;;;;;2.03;1.50;;;10.60;74.90;;;;;;5034786;28;20208;-74
2023/01/07 05:16:39;;;;;;;2.40;1.73;;;10.60;74.80;;;;;;5026971;28;20247;-73
2023/01/07 05:19:05;;;;;;;2.27;1.60;;;10.60;74.60;;;;;;5032268;28;20585;-72
2023/01/07 05:21:30;;;;;;;2.30;1.70;;;10.60;74.60;;;;;;5032677;28;20559;-73
2023/01/07 05:23:56;;;;;;;2.03;1.50;;;10.60;74.60;;;;;;5034922;28;20193;-73
2023/01/07 05:26:21;;;;;;;2.67;1.93;;;10.60;74.30;;;;;;5033005;28;20220;-73
2023/01/07 05:28:47;;;;;;;2.83;1.83;;;10.60;73.90;;;;;;5032885;28;20196;-73
2023/01/07 05:31:13;;;;;;;2.50;1.70;;;10.60;73.90;;;;;;5034632;28;20181;-73
2023/01/07 05:33:38;;;;;;;3.60;1.83;;;10.50;74.00;;;;;;5029664;28;20604;-74
2023/01/07 05:36:04;;;;;;;2.07;1.87;;;10.40;74.30;;;;;;5031280;28;20209;-73
2023/01/07 05:38:30;;;;;;;2.57;1.90;;;10.40;74.50;;;;;;5033098;28;20189;-73
2023/01/07 05:40:56;;;;;;;2.40;1.90;;;10.40;74.60;;;;;;5032694;28;20189;-74
2023/01/07 05:43:22;;;;;;;3.30;1.83;;;10.40;74.60;;;;;;5029309;28;20743;-73
2023/01/07 05:45:47;;;;;;;3.17;2.20;;;10.50;74.60;;;;;;5031796;28;20456;-73
2023/01/07 05:48:14;;;;;;;2.10;1.83;;;10.40;74.60;;;;;;5033211;28;20467;-73
2023/01/07 05:50:40;;;;;;;3.07;1.90;;;10.50;74.60;;;;;;5027363;28;20181;-74
2023/01/07 05:53:06;;;;;;;5.00;2.03;;;10.50;74.60;;;;;;5035983;28;20458;-74
2023/01/07 05:55:31;;;;;;;2.63;2.03;;;10.40;74.80;;;;;;5042061;28;20459;-74
2023/01/07 05:57:57;;;;;;;2.83;1.90;;;10.40;74.90;;;;;;5040136;28;20300;-74
2023/01/07 06:00:23;;;;;;;1.83;1.40;;;10.40;74.90;;;;;;5042496;28;20204;-75
2023/01/07 06:02:48;;;;;;;2.90;2.13;;;10.50;74.90;;;;;;5040398;28;20186;-74
2023/01/07 06:05:14;;;;;;;3.37;2.33;;;10.50;74.80;;;;;;5037258;28;20213;-73
2023/01/07 06:07:39;;;;;;;1.70;1.67;;;10.40;74.90;;;;;;5031424;28;20209;-74
2023/01/07 06:10:05;;;;;;;3.73;2.00;;;10.40;74.90;;;;;;5033026;28;20185;-74
2023/01/07 06:12:32;;;;;;;2.83;2.03;;;10.50;74.90;;;;;;5030219;28;20250;-74
2023/01/07 06:14:58;;;;;;;2.37;1.93;;;10.40;74.80;;;;;;5030389;28;20442;-74
2023/01/07 06:17:23;;;;;;;2.30;1.90;;;10.40;75.10;;;;;;5032222;28;20424;-75
2023/01/07 06:19:49;;;;;;;4.23;2.30;;;10.40;75.10;;;;;;5033067;28;20219;-74
2023/01/07 06:22:15;;;;;;;2.40;1.93;;;10.30;74.90;;;;;;5031100;28;20189;-73
2023/01/07 06:24:40;;;;;;;3.73;2.30;;;10.20;75.50;;;;;;5032388;28;20182;-74
2023/01/07 06:27:06;;;;;;;3.30;2.30;;;10.20;75.80;;;;;;5029976;28;20697;-75
2023/01/07 06:29:31;;;;;;;2.00;1.70;;;10.30;75.90;;;;;;5026231;28;20245;-74
2023/01/07 06:31:57;;;;;;;3.70;2.10;;;10.20;75.70;;;;;;5029297;28;20205;-74
2023/01/07 06:34:23;;;;;;;3.13;2.33;;;10.10;75.70;;;;;;5028841;28;20673;-73
2023/01/07 06:36:48;;;;;;;3.00;1.60;;;10.00;75.90;;;;;;5024229;28;20539;-73
2023/01/07 06:39:14;;;;;;;2.93;2.00;;;10.00;76.10;;;;;;5031763;28;20262;-73
2023/01/07 06:41:39;;;;;;;3.40;2.10;;;10.00;76.10;;;;;;5023576;28;20177;-74
2023/01/07 06:44:05;;;;;;;2.43;1.77;;;10.00;76.10;;;;;;5029137;28;20177;-73
2023/01/07 06:46:31;;;;;;;3.10;2.07;;;10.00;76.10;;;;;;5021352;28;20217;-74
2023/01/07 06:48:56;;;;;;;4.27;2.10;;;10.00;75.80;;;;;;5019234;28;20317;-74
2023/01/07 06:51:22;;;;;;;1.97;1.80;;;9.90;76.10;;;;;;5024055;28;20185;-73
2023/01/07 06:53:48;;;;;;;2.87;1.80;;;9.90;76.20;;;;;;5026430;28;20209;-73
2023/01/07 06:56:13;;;;;;;2.47;1.63;;;9.90;76.10;;;;;;4986324;28;1081776;-73
2023/01/07 06:58:39;;;;;;;3.17;1.90;;;9.90;76.40;;;;;;5024747;28;20185;-73
2023/01/07 07:01:06;;;;;;;2.67;1.87;;;9.90;76.40;;;;;;5031294;28;20184;-73
2023/01/07 07:03:32;;;;;;;2.67;1.60;;;9.90;76.10;;;;;;5028404;28;20264;-73
2023/01/07 07:05:57;;;;;;;3.00;2.10;;;9.80;76.10;;;;;;5026980;28;20547;-75
2023/01/07 07:08:23;;;;;;;2.03;1.67;;;9.90;76.10;;;;;;5030746;28;20216;-74
2023/01/07 07:10:48;;;;;;;2.33;1.87;;;9.80;76.20;;;;;;5028253;28;20178;-73
2023/01/07 07:13:14;;;;;;;2.83;1.93;;;9.80;76.20;;;;;;5030927;28;20248;-73
2023/01/07 07:15:40;;;;;;;3.00;1.90;;;9.70;75.90;;;;;;5020175;28;20757;-73
2023/01/07 07:18:05;;;;;;;3.70;1.77;;;9.60;76.10;;;;;;5027761;28;20185;-73
2023/01/07 07:20:31;;;;;;;2.70;1.83;;;9.60;76.20;;;;;;5027645;28;20213;-73
2023/01/07 07:22:56;;;;;;;2.07;1.63;;;9.50;76.10;;;;;;5026961;28;20177;-73
2023/01/07 07:25:22;;;;;;;2.30;1.60;;;9.50;76.20;;;;;;5028394;28;20248;-74
2023/01/07 07:27:47;;;;;;;1.50;1.33;;;9.50;76.40;;;;;;5028865;28;20216;-73
2023/01/07 07:30:14;;;;;;;2.43;1.53;;;9.50;76.20;;;;;;5023141;28;20194;-74
2023/01/07 07:32:40;;;;;;;2.03;1.70;;;9.50;76.20;;;;;;5028818;28;20205;-75
2023/01/07 07:35:06;;;;;;;3.10;1.83;;;9.50;75.90;;;;;;5034216;28;20467;-75
2023/01/07 07:37:32;;;;;;;2.40;1.90;;;9.50;75.90;;;;;;5032240;28;20850;-76
2023/01/07 07:39:57;;;;;;;3.27;1.83;;;9.40;75.80;;;;;;5030340;28;20424;-75
2023/01/07 07:42:23;;;;;;;3.10;2.00;;;9.50;76.10;;;;;;5028937;28;20190;-75
2023/01/07 07:44:49;;;;;;;1.30;1.30;;;9.60;75.80;;;;;;5029695;28;20219;-75
2023/01/07 07:47:15;;;;;;;1.93;1.50;;;9.60;75.80;;;;;;5028294;28;20875;-75
2023/01/07 07:49:41;;;;;;;2.37;2.00;;;9.60;75.80;;;;;;5024339;28;20431;-75
2023/01/07 07:52:06;;;;;;;3.17;2.00;;;9.70;75.50;;;;;;5024486;28;20420;-75
2023/01/07 07:54:32;;;;;;;2.10;1.53;;;9.90;75.20;;;;;;5029800;28;20173;-74
2023/01/07 07:56:58;;;;;;;4.00;2.37;;;9.90;75.10;;;;;;5026109;28;20217;-76
2023/01/07 07:59:24;;;;;;;3.10;1.93;;;9.90;75.10;;;;;;5027368;28;20188;-74
2023/01/07 08:01:49;;;;;;;2.50;1.77;;;9.90;74.90;;;;;;5029828;28;20189;-76
2023/01/07 08:04:15;;;;;;;3.07;2.03;;;9.90;74.90;;;;;;5034320;28;20423;-75
2023/01/07 08:06:41;;;;;;;2.30;1.70;;;9.90;74.90;;;;;;5035642;28;20215;-74
2023/01/07 08:09:06;;;;;;;2.33;1.60;;;9.90;75.20;;;;;;5032245;28;20184;-75
2023/01/07 08:11:32;;;;;;;4.50;2.23;;;9.90;74.90;;;;;;5036280;28;20254;-75
2023/01/07 08:13:58;;;;;;;2.00;1.60;;;10.00;74.90;;;;;;5035397;28;20182;-74
2023/01/07 08:16:23;;;;;;;2.80;1.80;;;10.00;74.80;;;;;;5036721;28;20220;-75
2023/01/07 08:18:49;;;;;;;3.23;1.70;;;10.00;74.60;;;;;;5036420;28;20644;-75
2023/01/07 08:21:14;;;;;;;4.07;1.70;;;10.00;74.50;;;;;;5030116;28;20200;-76
2023/01/07 08:23:40;;;;;;;2.30;1.50;;;10.10;74.60;;;;;;5034028;28;20201;-75
2023/01/07 08:26:05;;;;;;;2.17;1.80;;;10.10;74.60;;;;;;5029030;28;20244;-74
2023/01/07 08:28:32;;;;;;;2.33;1.50;;;10.00;74.60;;;;;;5038127;28;20187;-74
2023/01/07 08:31:02;;;;;;;1.87;1.50;;;10.10;74.30;;;;;;5033707;28;20189;-75
2023/01/07 08:33:27;;;;;;;3.17;1.80;;;10.20;74.00;;;;;;5034844;28;20420;-74
2023/01/07 08:35:53;;;;;;;2.13;1.80;;;10.10;74.00;;;;;;5032526;28;20462;-74
2023/01/07 08:38:19;;;;;;;2.20;1.80;;;10.10;74.20;;;;;;5035963;28;20197;-75
2023/01/07 08:40:44;;;;;;;2.53;1.70;;;10.00;74.20;;;;;;5028687;28;20253;-73
2023/01/07 08:43:11;;;;;;;2.10;1.60;;;10.10;74.20;;;;;;5034585;28;20721;-74
2023/01/07 08:45:37;;;;;;;3.47;1.93;;;10.00;74.50;;;;;;5034937;28;20201;-74
2023/01/07 08:48:03;;;;;;;3.43;1.70;;;10.00;74.30;;;;;;5040507;28;20463;-75
2023/01/07 08:50:31;;;;;;;2.40;2.00;;;10.00;74.60;;;;;;5042553;28;20424;-74
2023/01/07 08:52:57;;;;;;;1.83;1.73;;;10.00;74.50;;;;;;5040189;28;20423;-74
2023/01/07 08:55:23;;;;;;;2.90;1.70;;;10.00;74.50;;;;;;5037503;28;20457;-76
2023/01/07 08:57:49;;;;;;;3.23;1.97;;;10.10;74.60;;;;;;5038991;28;20447;-76
2023/01/07 09:00:16;;;;;;;3.10;1.77;;;10.10;74.20;;;;;;5042029;28;20524;-74
2023/01/07 09:02:43;;;;;;;2.23;1.60;;;10.20;74.20;;;;;;5047695;28;20428;-77
2023/01/07 09:05:09;;;;;;;3.73;2.53;;;10.30;73.70;;;;;;5041163;28;20775;-78
2023/01/07 09:07:35;;;;;;;5.50;2.40;;;10.20;73.70;;;;;;5040090;28;20472;-75
2023/01/07 09:10:01;;;;;;;3.47;2.07;;;10.20;73.70;;;;;;5043572;28;20511;-75
2023/01/07 09:12:26;;;;;;;2.90;1.93;;;10.30;73.70;;;;;;5041928;28;20236;-76
2023/01/07 09:14:52;;;;;;;3.20;2.10;;;10.30;73.70;;;;;;5030809;28;20434;-75
2023/01/07 09:17:18;;;;;;;2.30;1.83;;;10.30;73.70;;;;;;5022879;28;20228;-74
2023/01/07 09:19:43;;;;;;;3.50;1.90;;;10.40;73.60;;;;;;5025901;28;20467;-76
2023/01/07 09:22:09;;;;;;;2.07;1.50;;;10.40;73.50;;;;;;5022920;28;20272;-76
2023/01/07 09:24:34;;;;;;;3.00;1.73;;;10.40;73.30;;;;;;5025376;28;20190;-75
2023/01/07 09:27:00;;;;;;;3.93;2.13;;;10.50;73.20;;;;;;5024985;28;20214;-76
2023/01/07 09:29:25;;;;;;;2.77;1.90;;;10.70;72.70;;;;;;5029617;28;20173;-73
2023/01/07 09:31:51;;;;;;;4.00;2.30;;;10.70;72.40;;;;;;5026938;28;20201;-75
2023/01/07 09:34:17;;;;;;;3.00;1.70;;;10.50;72.70;;;;;;5031976;28;20192;-76
2023/01/07 09:36:42;;;;;;;8.30;3.00;;;10.60;73.00;;;;;;5025096;28;20214;-73
2023/01/07 09:39:10;;;;;;;3.60;2.60;;;10.60;73.00;;;;;;5029566;28;20229;-73
2023/01/07 09:42:07;;;;;;;2.70;2.03;;;10.60;73.00;;;;;;5036942;28;20190;-74
2023/01/07 09:45:05;;;;;;;4.73;3.03;;;10.60;73.00;;;;;;5022652;28;20442;-75
2023/01/07 09:47:35;;;;;;;5.83;3.17;;;10.60;73.20;;;;;;5017872;28;20464;-76
2023/01/07 09:50:08;;;;;;;4.80;2.77;;;10.50;73.30;;;;;;5028956;28;20429;-77
2023/01/07 09:52:39;;;;;;;3.60;2.70;;;10.60;73.50;;;;;;5040705;28;20699;-76
2023/01/07 09:55:11;;;;;;;7.90;3.27;;;10.60;73.50;;;;;;5036995;28;21936;-75
2023/01/07 09:57:37;;;;;;;5.33;3.10;;;10.60;73.30;;;;;;5041158;28;20462;-75
2023/01/07 10:00:09;;;;;;;5.90;4.27;;;10.60;73.50;;;;;;5042916;28;20496;-76
2023/01/07 10:02:47;;;;;;;5.63;3.63;;;10.50;73.20;;;;;;5041950;28;20265;-75
2023/01/07 10:05:15;;;;;;;6.13;3.50;;;10.50;73.50;;;;;;5032481;28;20462;-77
2023/01/07 10:08:11;;;;;;;5.93;3.73;;;10.50;73.70;;;;;;5035593;28;20517;-76
2023/01/07 10:10:50;;;;;;;7.97;4.43;;;10.50;73.30;;;;;;5031275;28;20439;-77
2023/01/07 10:13:35;;;;;;;5.53;3.30;;;10.60;73.50;;;;;;5039165;28;20476;-74
2023/01/07 10:16:18;;;;;;;6.13;3.70;;;10.50;73.00;;;;;;5032741;28;20547;-76
2023/01/07 10:19:07;;;;;;;7.17;3.67;;;10.50;73.50;;;;;;5029272;28;20522;-77
2023/01/07 10:21:39;;;;;;;6.27;3.13;;;10.60;72.90;;;;;;5028717;28;20420;-75
2023/01/07 10:24:17;;;;;;;6.33;3.73;;;10.60;72.60;;;;;;5025754;28;20459;-77
2023/01/07 10:26:47;;;;;;;8.20;3.83;;;10.50;72.30;;;;;;5025227;28;20966;-74
2023/01/07 10:29:24;;;;;;;6.60;3.50;;;10.40;72.30;;;;;;5024943;28;20428;-76
2023/01/07 10:31:53;;;;;;;8.37;4.10;;;10.30;72.60;;;;;;5025263;28;20435;-77
2023/01/07 10:34:23;;;;;;;5.50;3.97;;;10.30;72.70;;;;;;5024915;28;20428;-76
2023/01/07 10:37:06;;;;;;;7.77;4.40;;;10.40;72.70;;;;;;5019227;28;20685;-76
2023/01/07 10:39:52;;;;;;;7.37;4.67;;;10.50;72.30;;;;;;5022530;28;20907;-76
2023/01/07 10:42:42;;;;;;;7.83;4.33;;;10.50;72.60;;;;;;5015266;28;20505;-75
2023/01/07 10:45:34;;;;;;;7.30;4.37;;;10.70;71.80;;;;;;5022045;28;20693;-74
2023/01/07 10:48:23;;;;;;;10.43;4.10;;;10.80;71.70;;;;;;5018555;28;20847;-75
2023/01/07 10:51:13;;;;;;;5.13;3.53;;;10.80;71.40;;;;;;5021976;28;20415;-75
2023/01/07 10:54:20;;;;;;;7.90;4.80;;;10.90;71.00;;;;;;5024528;28;20430;-75
2023/01/07 10:56:50;;;;;;;6.80;4.63;;;10.70;71.30;;;;;;5024196;28;20474;-76
2023/01/07 10:59:19;;;;;;;11.60;5.40;;;10.60;72.30;;;;;;5023508;28;20534;-75
2023/01/07 11:01:51;;;;;;;10.50;5.30;;;10.50;72.40;;;;;;5028766;28;20424;-76
2023/01/07 11:04:17;;;;;;;10.37;5.20;;;10.60;72.40;;;;;;5028357;28;20430;-75
2023/01/07 11:06:57;;;;;;;14.77;5.40;;;10.70;72.30;;;;;;5026085;28;20487;-75
2023/01/07 11:09:31;;;;;;;9.33;5.00;;;10.90;71.80;;;;;;5025837;28;20425;-75
2023/01/07 11:12:15;;;;;;;11.20;5.77;;;11.10;71.70;;;;;;5034180;28;20423;-75
2023/01/07 11:14:42;;;;;;;8.77;5.20;;;11.20;71.00;;;;;;5032344;28;20903;-75
2023/01/07 11:17:36;;;;;;;7.10;4.20;;;11.10;71.00;;;;;;5024601;28;20457;-74
2023/01/07 11:20:03;;;;;;;8.10;4.47;;;11.00;71.60;;;;;;5033838;28;20817;-76
2023/01/07 11:22:32;;;;;;;6.67;4.10;;;10.90;71.60;;;;;;5030253;28;20473;-75
2023/01/07 11:24:59;;;;;;;8.50;4.20;;;10.90;72.00;;;;;;5030140;28;20510;-75
2023/01/07 11:27:32;;;;;;;6.97;4.77;;;10.90;72.10;;;;;;5028700;28;20482;-74
2023/01/07 11:30:02;;;;;;;7.33;4.17;;;11.00;72.10;;;;;;5029236;28;20427;-75
2023/01/07 11:32:34;;;;;;;8.90;4.30;;;11.00;72.10;;;;;;5022656;28;20906;-76
2023/01/07 11:35:06;;;;;;;7.43;4.30;;;11.00;72.00;;;;;;5023306;28;20903;-76
2023/01/07 11:37:51;;;;;;;5.07;3.60;;;11.00;72.10;;;;;;5023969;28;21042;-75
2023/01/07 11:40:28;;;;;;;8.00;3.87;;;11.00;72.30;;;;;;5026896;28;20448;-75
2023/01/07 11:43:19;;;;;;;7.27;4.00;;;10.90;72.30;;;;;;5027893;28;20423;-76
2023/01/07 11:45:57;;;;;;;5.50;3.70;;;11.00;72.10;;;;;;5021834;28;20541;-76
2023/01/07 11:48:29;;;;;;;9.00;4.23;;;11.00;72.30;;;;;;5028525;28;20986;-76
2023/01/07 11:51:05;;;;;;;6.27;4.10;;;11.10;72.30;;;;;;5024648;28;20559;-75
2023/01/07 11:53:36;;;;;;;6.50;3.80;;;11.20;72.00;;;;;;5026893;28;20415;-73
2023/01/07 11:56:05;;;;;;;9.57;4.77;;;11.20;71.80;;;;;;5023068;28;20545;-74
2023/01/07 11:58:45;;;;;;;7.10;4.63;;;11.20;71.60;;;;;;5026309;28;20501;-73
2023/01/07 12:01:14;;;;;;;11.07;4.70;;;11.10;71.70;;;;;;5021265;28;20486;-75
2023/01/07 12:03:42;;;;;;;8.60;4.30;;;11.10;71.80;;;;;;5022782;28;20766;-73
2023/01/07 12:06:20;;;;;;;6.00;3.67;;;11.10;71.80;;;;;;5020125;28;20540;-74
2023/01/07 12:08:56;;;;;;;5.80;3.83;;;11.20;71.80;;;;;;5020699;28;20424;-73
2023/01/07 12:11:30;;;;;;;5.50;4.20;;;11.30;71.60;;;;;;5026103;28;20803;-73
2023/01/07 12:14:06;;;;;;;8.37;4.53;;;11.40;71.00;;;;;;5023791;28;20404;-73
2023/01/07 12:16:33;;;;;;;6.80;4.27;;;11.40;71.00;;;;;;5021033;28;20826;-73
2023/01/07 12:19:08;;;;;;;6.90;4.20;;;11.40;70.80;;;;;;5026063;28;20416;-74
2023/01/07 12:21:35;;;;;;;9.57;4.33;;;11.40;70.50;;;;;;5025930;28;20784;-74
2023/01/07 12:24:12;;;;;;;7.17;4.40;;;11.30;71.00;;;;;;5025816;28;20427;-73
2023/01/07 12:26:56;;;;;;;4.87;3.73;;;11.40;71.10;;;;;;5028653;28;20571;-72
2023/01/07 12:29:34;;;;;;;7.17;4.17;;;11.40;71.00;;;;;;5030649;28;20495;-74
2023/01/07 12:32:15;;;;;;;8.43;5.10;;;11.40;71.00;;;;;;5029421;28;20519;-74
2023/01/07 12:34:57;;;;;;;6.60;4.17;;;11.50;71.00;;;;;;5018601;28;20412;-74
2023/01/07 12:37:40;;;;;;;5.83;4.23;;;11.50;71.00;;;;;;5023632;28;20892;-75
2023/01/07 12:40:09;;;;;;;9.07;5.00;;;11.50;70.70;;;;;;5027040;28;21078;-75
2023/01/07 12:42:39;;;;;;;8.67;4.37;;;11.50;71.10;;;;;;5028974;28;20431;-74
2023/01/07 12:45:12;;;;;;;7.30;4.93;;;11.40;71.40;;;;;;5029486;28;20741;-74
2023/01/07 12:47:45;;;;;;;6.67;4.33;;;11.50;71.60;;;;;;5028405;28;20467;-73
2023/01/07 12:50:19;;;;;;;8.63;4.50;;;11.60;71.30;;;;;;5030328;28;20836;-75
2023/01/07 12:53:11;;;;;;;6.20;4.17;;;11.80;70.80;;;;;;5024486;28;20424;-75
2023/01/07 12:55:46;;;;;;;7.97;4.87;;;11.90;70.40;;;;;;5023748;28;20852;-76
2023/01/07 12:58:31;;;;;;;8.00;4.53;;;12.10;70.10;;;;;;5029985;28;20815;-73
2023/01/07 13:01:06;;;;;;;6.33;4.10;;;12.20;70.10;;;;;;5030283;28;20758;-73
2023/01/07 13:03:38;;;;;;;6.63;4.27;;;12.30;69.90;;;;;;5028415;28;20776;-75
2023/01/07 13:06:14;;;;;;;8.40;4.60;;;12.30;69.80;;;;;;5030013;28;20984;-74
2023/01/07 13:09:00;;;;;;;8.27;4.93;;;12.40;69.70;;;;;;5032701;28;20412;-72